Time;durP1;ratioP1;P1;durP2;ratioP2;P2;SDS_P1;SDS_P2;PMS_P1;PMS_P2;Temp;Humidity;BMP_temperature;BMP_pressure;BME280_temperature;BME280_humidity;BME280_pressure;Samples;Min_cycle;Max_cycle;Signal;HPM_P1;HPM_P2
2021/08/21 00:00:20;;;;;;;239.83;228.27;;;14.30;99.90;;;;;;6097742;23;20443;-83
2021/08/21 00:02:46;;;;;;;236.63;225.47;;;14.30;99.90;;;;;;6098179;23;20432;-83
2021/08/21 00:05:15;;;;;;;237.67;226.40;;;14.20;99.90;;;;;;6097163;23;21045;-83
2021/08/21 00:07:42;;;;;;;232.33;221.33;;;14.20;99.90;;;;;;6098117;23;20495;-82
2021/08/21 00:10:10;;;;;;;233.07;222.07;;;14.10;99.90;;;;;;6097067;23;20414;-81
2021/08/21 00:12:37;;;;;;;229.93;218.87;;;14.10;99.90;;;;;;6097593;23;20399;-79
2021/08/21 00:15:05;;;;;;;229.40;218.60;;;14.10;99.90;;;;;;6097644;23;20450;-82
2021/08/21 00:17:32;;;;;;;221.07;210.83;;;14.00;99.90;;;;;;6047610;23;20419;-81
2021/08/21 00:19:59;;;;;;;216.23;205.93;;;14.00;99.90;;;;;;6097609;23;20998;-82
2021/08/21 00:22:27;;;;;;;214.40;204.00;;;13.90;99.90;;;;;;6098075;23;20435;-80
2021/08/21 00:24:54;;;;;;;227.23;216.47;;;13.90;99.90;;;;;;6096568;23;20407;-81
2021/08/21 00:27:22;;;;;;;239.20;228.10;;;14.00;99.90;;;;;;6097539;23;20494;-83
2021/08/21 00:29:48;;;;;;;226.83;215.60;;;14.10;99.90;;;;;;6097866;23;20404;-82
2021/08/21 00:32:16;;;;;;;230.20;219.30;;;14.10;99.90;;;;;;6097770;23;20486;-83
2021/08/21 00:34:43;;;;;;;223.97;213.37;;;14.00;99.90;;;;;;6097379;23;21022;-82
2021/08/21 00:37:10;;;;;;;231.10;219.07;;;14.00;99.90;;;;;;6097818;23;20428;-82
2021/08/21 00:39:38;;;;;;;241.87;230.07;;;14.00;99.90;;;;;;6105861;23;20411;-82
2021/08/21 00:42:07;;;;;;;247.87;235.57;;;14.20;99.90;;;;;;6097718;23;20416;-82
2021/08/21 00:44:35;;;;;;;234.20;223.00;;;14.20;99.90;;;;;;6097843;23;20443;-82
2021/08/21 00:47:07;;;;;;;226.93;216.23;;;14.10;99.90;;;;;;6097608;23;20801;-81
2021/08/21 00:49:35;;;;;;;224.17;213.00;;;14.10;99.90;;;;;;6097706;23;20400;-82
2021/08/21 00:52:04;;;;;;;235.47;224.17;;;14.00;99.90;;;;;;6097732;23;20724;-81
2021/08/21 00:54:31;;;;;;;229.00;217.90;;;14.00;99.90;;;;;;6095966;23;20448;-81
2021/08/21 00:57:01;;;;;;;230.30;219.20;;;14.10;99.90;;;;;;6097669;23;20435;-82
2021/08/21 00:59:31;;;;;;;232.43;221.13;;;14.10;99.90;;;;;;6097420;23;20495;-81
2021/08/21 01:01:58;;;;;;;235.47;224.07;;;14.00;99.90;;;;;;6097486;23;20497;-81
2021/08/21 01:04:24;;;;;;;234.47;223.30;;;14.00;99.90;;;;;;6106945;23;20490;-82
2021/08/21 01:06:51;;;;;;;241.20;229.50;;;13.90;99.90;;;;;;6097573;23;20499;-81
2021/08/21 01:09:18;;;;;;;234.80;222.90;;;14.00;99.90;;;;;;6095853;23;20967;-82
2021/08/21 01:11:46;;;;;;;238.53;227.03;;;14.00;99.90;;;;;;6097452;23;20486;-82
2021/08/21 01:14:15;;;;;;;236.97;225.80;;;13.90;99.90;;;;;;6096922;23;20474;-81
2021/08/21 01:16:42;;;;;;;232.60;221.53;;;13.90;99.90;;;;;;6096758;23;20414;-82
2021/08/21 01:19:09;;;;;;;234.50;223.60;;;13.90;99.90;;;;;;6097410;23;20430;-81
2021/08/21 01:21:35;;;;;;;229.03;218.17;;;14.00;99.90;;;;;;6097030;23;20910;-82
2021/08/21 01:24:02;;;;;;;236.33;225.53;;;14.00;99.90;;;;;;6096139;23;20431;-82
2021/08/21 01:26:29;;;;;;;223.20;212.37;;;13.90;99.90;;;;;;6097264;23;20450;-81
2021/08/21 01:28:57;;;;;;;220.03;209.67;;;13.90;99.90;;;;;;6097373;23;20510;-82
2021/08/21 01:31:24;;;;;;;214.67;203.47;;;13.90;99.90;;;;;;6097334;23;20491;-82
2021/08/21 01:33:51;;;;;;;222.27;211.57;;;13.90;99.90;;;;;;6097218;23;20470;-82
2021/08/21 01:36:18;;;;;;;222.17;211.37;;;13.90;99.90;;;;;;6097382;23;20463;-82
2021/08/21 01:38:56;;;;;;;231.20;220.00;;;13.80;99.90;;;;;;6095917;23;20439;-81
2021/08/21 01:41:24;;;;;;;234.77;223.60;;;13.80;99.90;;;;;;6097278;23;20403;-82
2021/08/21 01:43:51;;;;;;;238.63;226.93;;;13.80;99.90;;;;;;6097200;23;20495;-82
2021/08/21 01:46:19;;;;;;;239.27;227.57;;;13.70;99.90;;;;;;6097212;23;20793;-82
2021/08/21 01:48:46;;;;;;;247.93;236.03;;;13.70;99.90;;;;;;6097275;23;20455;-82
2021/08/21 01:51:13;;;;;;;249.23;237.83;;;13.70;99.90;;;;;;6097205;23;20487;-81
2021/08/21 01:53:40;;;;;;;238.63;227.37;;;13.70;99.90;;;;;;6095737;23;20470;-82
2021/08/21 01:56:07;;;;;;;227.10;216.17;;;13.50;99.90;;;;;;6097155;23;20841;-82
2021/08/21 01:58:34;;;;;;;231.57;220.53;;;13.40;99.90;;;;;;6097201;23;20446;-82
2021/08/21 02:01:04;;;;;;;243.33;231.07;;;13.40;99.90;;;;;;6106560;23;20605;-81
2021/08/21 02:03:32;;;;;;;247.23;235.33;;;13.40;99.90;;;;;;6096927;23;20510;-82
2021/08/21 02:05:59;;;;;;;245.03;233.37;;;13.50;99.90;;;;;;6096706;23;20485;-82
2021/08/21 02:08:26;;;;;;;255.00;242.73;;;13.40;99.90;;;;;;6095796;23;20435;-82
2021/08/21 02:10:53;;;;;;;255.80;243.50;;;13.40;99.90;;;;;;6096708;23;20955;-82
2021/08/21 02:13:19;;;;;;;244.80;233.10;;;13.50;99.90;;;;;;6097160;23;20413;-82
2021/08/21 02:15:46;;;;;;;249.30;236.97;;;13.40;99.90;;;;;;6097136;23;20488;-82
2021/08/21 02:18:13;;;;;;;266.80;254.50;;;13.40;99.90;;;;;;6106655;23;20439;-82
2021/08/21 02:20:41;;;;;;;254.97;242.67;;;13.40;99.90;;;;;;6097107;23;20410;-81
2021/08/21 02:23:08;;;;;;;243.83;232.00;;;13.30;99.90;;;;;;6095849;23;20506;-82
2021/08/21 02:25:35;;;;;;;242.60;230.70;;;13.30;99.90;;;;;;6106888;23;20426;-82
2021/08/21 02:28:07;;;;;;;242.93;231.13;;;13.20;99.90;;;;;;6097214;23;20499;-82
2021/08/21 02:30:36;;;;;;;240.37;228.20;;;13.10;99.90;;;;;;6099084;23;20407;-81
2021/08/21 02:33:03;;;;;;;240.13;228.90;;;13.00;99.90;;;;;;6099071;23;20486;-81
2021/08/21 02:35:30;;;;;;;244.07;231.67;;;12.90;99.90;;;;;;6098463;23;21017;-82
2021/08/21 02:37:58;;;;;;;248.10;236.00;;;12.90;99.90;;;;;;6097757;23;20459;-82
2021/08/21 02:40:25;;;;;;;249.30;237.30;;;12.90;99.90;;;;;;6098998;23;20783;-82
2021/08/21 02:42:52;;;;;;;249.50;237.53;;;12.90;99.90;;;;;;6108858;23;20411;-82
2021/08/21 02:45:19;;;;;;;255.63;243.57;;;12.90;99.90;;;;;;6098958;23;20490;-81
2021/08/21 02:47:46;;;;;;;260.43;247.87;;;12.90;99.90;;;;;;6098914;23;20733;-82
2021/08/21 02:50:13;;;;;;;258.20;246.37;;;12.90;99.90;;;;;;6098814;23;20431;-81
2021/08/21 02:52:39;;;;;;;267.47;254.57;;;12.90;99.90;;;;;;6098555;23;20967;-82
2021/08/21 02:55:09;;;;;;;256.80;244.50;;;12.80;99.90;;;;;;6097503;23;20465;-82
2021/08/21 02:57:36;;;;;;;258.03;245.07;;;12.80;99.90;;;;;;6108239;23;20412;-81
2021/08/21 03:00:03;;;;;;;259.53;246.90;;;12.70;99.90;;;;;;6098457;23;20883;-82
2021/08/21 03:02:30;;;;;;;260.53;247.30;;;12.80;99.90;;;;;;6098699;23;20491;-81
2021/08/21 03:04:57;;;;;;;255.23;242.43;;;12.60;99.90;;;;;;6098410;23;20530;-82
2021/08/21 03:07:23;;;;;;;246.50;233.80;;;12.40;99.90;;;;;;6098755;23;20405;-81
2021/08/21 03:09:50;;;;;;;248.20;235.47;;;12.30;99.90;;;;;;6097348;23;20748;-82
2021/08/21 03:12:18;;;;;;;252.77;239.87;;;12.30;99.90;;;;;;6098704;23;20474;-82
2021/08/21 03:14:45;;;;;;;246.47;234.47;;;12.30;99.90;;;;;;6108008;23;20474;-82
2021/08/21 03:17:12;;;;;;;239.90;227.60;;;12.30;99.90;;;;;;6098515;23;20801;-81
2021/08/21 03:19:39;;;;;;;253.00;240.90;;;12.40;99.90;;;;;;6098613;23;20407;-81
2021/08/21 03:22:06;;;;;;;255.90;243.37;;;12.40;99.90;;;;;;6098204;23;20405;-82
2021/08/21 03:24:33;;;;;;;249.57;237.27;;;12.40;99.90;;;;;;6097174;23;20410;-82
2021/08/21 03:27:00;;;;;;;245.13;233.43;;;12.30;99.90;;;;;;6098533;23;20493;-82
2021/08/21 03:29:28;;;;;;;243.37;231.97;;;12.30;99.90;;;;;;6098103;23;20968;-82
2021/08/21 03:31:56;;;;;;;246.20;235.00;;;12.30;99.90;;;;;;6097965;23;20995;-81
2021/08/21 03:34:24;;;;;;;257.63;245.90;;;12.40;99.90;;;;;;6098002;23;20529;-82
2021/08/21 03:36:51;;;;;;;269.67;257.53;;;12.50;99.90;;;;;;6098066;23;20417;-82
2021/08/21 03:39:18;;;;;;;273.57;261.27;;;12.60;99.90;;;;;;6096997;23;20409;-81
2021/08/21 03:41:45;;;;;;;283.97;271.37;;;12.70;99.90;;;;;;6107694;23;20414;-82
2021/08/21 03:44:12;;;;;;;269.30;257.10;;;12.80;99.90;;;;;;6107644;23;20406;-81
2021/08/21 03:46:40;;;;;;;268.40;256.30;;;12.80;99.90;;;;;;6098355;23;20744;-81
2021/08/21 03:49:07;;;;;;;271.97;259.77;;;12.80;99.90;;;;;;6098476;23;20448;-81
2021/08/21 03:51:34;;;;;;;279.53;267.07;;;12.90;99.90;;;;;;6107957;23;20445;-81
2021/08/21 03:54:01;;;;;;;277.27;265.03;;;13.00;99.90;;;;;;6106548;23;20445;-82
2021/08/21 03:56:28;;;;;;;280.90;268.80;;;13.10;99.90;;;;;;6098257;23;20499;-82
2021/08/21 03:58:55;;;;;;;276.77;264.67;;;13.10;99.90;;;;;;6098092;23;20492;-82
2021/08/21 04:01:21;;;;;;;270.63;257.63;;;13.30;99.90;;;;;;6098149;23;20430;-78
2021/08/21 04:03:50;;;;;;;271.40;259.03;;;13.30;99.90;;;;;;6097982;23;20542;-82
2021/08/21 04:06:16;;;;;;;273.83;261.03;;;13.40;99.90;;;;;;6098120;23;20802;-81
2021/08/21 04:08:43;;;;;;;270.10;257.50;;;13.40;99.90;;;;;;6096396;23;20408;-81
2021/08/21 04:11:10;;;;;;;265.77;253.57;;;13.30;99.90;;;;;;6098049;23;20439;-81
2021/08/21 04:13:37;;;;;;;270.73;257.63;;;13.30;99.90;;;;;;6107791;23;20840;-81
2021/08/21 04:16:04;;;;;;;280.37;267.77;;;13.30;99.90;;;;;;6097891;23;20486;-81
2021/08/21 04:18:31;;;;;;;269.70;257.30;;;13.30;99.90;;;;;;6098052;23;20727;-81
2021/08/21 04:20:59;;;;;;;269.37;256.93;;;13.40;99.90;;;;;;6097698;23;20452;-82
2021/08/21 04:23:26;;;;;;;272.07;258.73;;;13.30;99.90;;;;;;6096609;23;20413;-81
2021/08/21 04:25:59;;;;;;;265.43;252.83;;;13.40;99.90;;;;;;6097850;23;20435;-82
2021/08/21 04:28:26;;;;;;;270.60;257.90;;;13.40;99.90;;;;;;6107376;23;20494;-82
2021/08/21 04:30:52;;;;;;;269.30;257.07;;;13.30;99.90;;;;;;6097930;23;20487;-81
2021/08/21 04:33:19;;;;;;;274.27;261.70;;;13.30;99.90;;;;;;6097801;23;20878;-80
2021/08/21 04:35:46;;;;;;;275.00;262.60;;;13.40;99.90;;;;;;6107100;23;20439;-81
2021/08/21 04:38:15;;;;;;;275.67;263.30;;;13.50;99.90;;;;;;6096564;23;20446;-81
2021/08/21 04:40:43;;;;;;;267.17;254.77;;;13.60;99.90;;;;;;6097692;23;20403;-81
2021/08/21 04:43:10;;;;;;;270.77;258.60;;;13.60;99.90;;;;;;6097870;23;20415;-81
2021/08/21 04:45:38;;;;;;;271.27;259.00;;;13.70;99.90;;;;;;6097760;23;20513;-79
2021/08/21 04:48:05;;;;;;;272.33;260.03;;;13.70;99.90;;;;;;6097740;23;20478;-81
2021/08/21 04:50:35;;;;;;;284.50;271.50;;;13.80;99.90;;;;;;6097716;23;20407;-82
2021/08/21 04:53:02;;;;;;;274.47;261.57;;;13.90;99.90;;;;;;6096229;23;20400;-82
2021/08/21 04:55:30;;;;;;;285.27;272.53;;;14.00;99.90;;;;;;6097315;23;20473;-81
2021/08/21 04:57:57;;;;;;;273.17;260.60;;;14.10;99.90;;;;;;6097614;23;20404;-82
2021/08/21 05:00:25;;;;;;;274.00;260.70;;;14.20;99.90;;;;;;6097602;23;20408;-82
2021/08/21 05:02:53;;;;;;;280.67;267.40;;;14.30;99.90;;;;;;6097596;23;20709;-82
2021/08/21 05:05:20;;;;;;;277.77;264.80;;;14.30;99.90;;;;;;6097400;23;20471;-82
2021/08/21 05:07:47;;;;;;;272.70;259.10;;;14.30;99.90;;;;;;6106307;23;20479;-81
2021/08/21 05:10:14;;;;;;;266.87;254.07;;;14.40;99.90;;;;;;6096887;23;20412;-83
2021/08/21 05:12:43;;;;;;;271.73;259.10;;;14.40;99.90;;;;;;6097177;23;20406;-83
2021/08/21 05:15:12;;;;;;;270.40;257.60;;;14.40;99.90;;;;;;6097409;23;20439;-82
2021/08/21 05:17:39;;;;;;;265.03;251.97;;;14.40;99.90;;;;;;6097102;23;20404;-81
2021/08/21 05:20:09;;;;;;;269.57;256.20;;;14.50;99.90;;;;;;6097238;23;20404;-82
2021/08/21 05:22:48;;;;;;;259.13;246.30;;;14.50;99.90;;;;;;6097482;23;20729;-82
2021/08/21 05:25:16;;;;;;;263.80;251.00;;;14.60;99.90;;;;;;6096428;23;20489;-83
2021/08/21 05:27:44;;;;;;;267.00;253.90;;;14.70;99.90;;;;;;6097424;23;20455;-82
2021/08/21 05:30:12;;;;;;;261.63;248.53;;;14.80;99.90;;;;;;6097404;23;20770;-82
2021/08/21 05:32:38;;;;;;;249.63;237.07;;;14.80;99.90;;;;;;6097213;23;20482;-82
2021/08/21 05:35:06;;;;;;;244.70;232.40;;;14.90;99.90;;;;;;6097233;23;20506;-83
2021/08/21 05:37:33;;;;;;;242.40;230.20;;;15.00;99.90;;;;;;6096874;23;20412;-83
2021/08/21 05:40:00;;;;;;;233.00;220.70;;;15.00;99.90;;;;;;6095651;23;20487;-82
2021/08/21 05:42:27;;;;;;;235.27;222.57;;;15.10;99.90;;;;;;6097126;23;20487;-82
2021/08/21 05:44:55;;;;;;;219.27;208.13;;;15.20;99.90;;;;;;6106917;23;20486;-84
2021/08/21 05:47:22;;;;;;;224.27;212.50;;;15.40;99.90;;;;;;6097022;23;20409;-81
2021/08/21 05:49:49;;;;;;;220.00;208.70;;;15.40;99.90;;;;;;6097133;23;20404;-83
2021/08/21 05:52:16;;;;;;;204.73;194.03;;;15.50;99.90;;;;;;6106623;23;20896;-82
2021/08/21 05:54:42;;;;;;;183.00;173.60;;;15.60;99.90;;;;;;6105121;23;20439;-83
2021/08/21 05:57:09;;;;;;;168.70;160.20;;;15.60;99.90;;;;;;6096698;23;20408;-82
2021/08/21 05:59:36;;;;;;;153.27;145.63;;;15.70;99.90;;;;;;6096603;23;20491;-82
2021/08/21 06:02:05;;;;;;;147.70;140.60;;;15.70;99.90;;;;;;6106661;23;20482;-83
2021/08/21 06:04:32;;;;;;;138.17;131.43;;;15.80;99.90;;;;;;6105921;23;20997;-83
2021/08/21 06:06:59;;;;;;;125.17;119.30;;;15.80;99.90;;;;;;6096324;23;20498;-82
2021/08/21 06:09:26;;;;;;;114.13;108.90;;;15.80;99.90;;;;;;6095292;23;20439;-81
2021/08/21 06:11:52;;;;;;;107.97;102.60;;;15.80;99.90;;;;;;6106792;23;20935;-82
2021/08/21 06:14:20;;;;;;;103.17;98.47;;;15.70;99.90;;;;;;6106722;23;20439;-82
2021/08/21 06:16:46;;;;;;;100.37;95.20;;;15.70;99.90;;;;;;6096942;23;20446;-83
2021/08/21 06:19:15;;;;;;;100.60;96.00;;;15.60;99.90;;;;;;6096929;23;20439;-81
2021/08/21 06:21:42;;;;;;;100.97;96.13;;;15.70;99.90;;;;;;6106720;23;20438;-82
2021/08/21 06:24:09;;;;;;;98.47;93.77;;;15.70;99.90;;;;;;6105477;23;20785;-84
2021/08/21 06:26:38;;;;;;;97.90;92.80;;;15.70;99.90;;;;;;6106874;23;20392;-84
2021/08/21 06:29:04;;;;;;;101.03;96.33;;;15.70;99.90;;;;;;6096248;23;20416;-82
2021/08/21 06:31:32;;;;;;;102.27;97.27;;;15.70;99.90;;;;;;6106078;23;20439;-82
2021/08/21 06:33:59;;;;;;;105.17;99.67;;;15.80;99.90;;;;;;6096206;23;20408;-85
2021/08/21 06:36:27;;;;;;;107.70;102.60;;;15.80;99.90;;;;;;6096469;23;20440;-86
2021/08/21 06:38:54;;;;;;;104.73;99.83;;;15.90;99.90;;;;;;6095416;23;20478;-82
2021/08/21 06:41:21;;;;;;;104.60;99.70;;;16.00;99.90;;;;;;6096857;23;20404;-83
2021/08/21 06:43:48;;;;;;;101.00;96.30;;;16.10;99.90;;;;;;6096758;23;20455;-84
2021/08/21 06:46:20;;;;;;;104.40;99.30;;;16.30;99.90;;;;;;6104227;23;20918;-84
2021/08/21 06:48:47;;;;;;;103.47;98.27;;;16.40;99.90;;;;;;6104376;23;21199;-84
2021/08/21 06:51:14;;;;;;;95.57;91.13;;;16.50;99.90;;;;;;6105267;23;20483;-84
2021/08/21 06:53:43;;;;;;;87.67;83.60;;;16.50;99.90;;;;;;6093942;23;20435;-83
2021/08/21 06:56:11;;;;;;;84.93;80.90;;;16.70;99.90;;;;;;6104853;23;20467;-84
2021/08/21 06:58:37;;;;;;;79.40;75.53;;;16.70;99.90;;;;;;6105037;23;20506;-83
2021/08/21 07:01:04;;;;;;;69.17;65.80;;;16.80;99.90;;;;;;6104892;23;20435;-83
2021/08/21 07:06:26;;;;;;;63.40;60.40;;;17.00;99.90;;;;;;6095187;23;20947;-83
2021/08/21 07:09:00;;;;;;;58.30;55.53;;;17.00;99.90;;;;;;6093805;23;20706;-82
2021/08/21 07:11:27;;;;;;;63.23;60.23;;;17.10;99.90;;;;;;6095181;23;20481;-79
2021/08/21 07:13:54;;;;;;;62.47;59.53;;;17.30;99.90;;;;;;6104854;23;20412;-83
2021/08/21 07:16:46;;;;;;;;;;;;;;;;;;;;;
2021/08/21 07:19:29;;;;;;;39.17;36.97;;;17.50;99.90;;;;;;6102989;23;20937;-83
2021/08/21 07:22:19;;;;;;;34.60;32.70;;;17.60;99.90;;;;;;6107271;23;20425;-83
2021/08/21 07:25:02;;;;;;;27.97;25.90;;;17.70;99.90;;;;;;6106368;23;20467;-83
2021/08/21 07:27:30;;;;;;;26.60;24.73;;;17.90;99.90;;;;;;6096911;23;20791;-85
2021/08/21 07:29:58;;;;;;;25.13;23.50;;;18.00;99.90;;;;;;6098285;23;20427;-85
2021/08/21 07:32:33;;;;;;;21.70;20.20;;;18.10;99.90;;;;;;6097990;23;20907;-83
2021/08/21 07:35:23;;;;;;;23.00;21.30;;;18.20;99.90;;;;;;6097939;23;20462;-85
2021/08/21 07:37:49;;;;;;;18.40;17.10;;;18.40;99.90;;;;;;6107109;23;20404;-82
2021/08/21 07:40:18;;;;;;;23.27;21.87;;;18.50;99.90;;;;;;6097509;23;20435;-84
2021/08/21 07:42:45;;;;;;;19.13;17.67;;;18.70;99.90;;;;;;6097827;23;20408;-85
2021/08/21 07:45:13;;;;;;;14.97;13.57;;;18.80;99.90;;;;;;6097908;23;20403;-80
2021/08/21 07:47:40;;;;;;;10.90;9.80;;;18.80;98.70;;;;;;6098342;23;20403;-78
2021/08/21 07:50:08;;;;;;;12.80;11.07;;;18.90;97.30;;;;;;6098250;23;20483;-79
2021/08/21 07:52:34;;;;;;;13.50;10.80;;;19.10;97.60;;;;;;6098041;23;20403;-80
2021/08/21 07:55:17;;;;;;;14.27;10.43;;;19.10;95.90;;;;;;6096176;23;20478;-82
2021/08/21 07:57:55;;;;;;;9.83;7.67;;;19.40;96.20;;;;;;6107161;23;20423;-83
2021/08/21 08:00:28;;;;;;;12.33;7.27;;;19.70;93.70;;;;;;6107796;23;20470;-83
2021/08/21 08:03:30;;;;;;;7.80;6.07;;;20.00;91.20;;;;;;6097857;23;20435;-87
2021/08/21 08:05:59;;;;;;;6.83;5.07;;;20.40;88.60;;;;;;6066973;23;20423;-95
2021/08/21 08:09:30;;;;;;;;;;;;;;;;;;;;;
2021/08/21 08:18:32;;;;;;;7.90;5.27;;;22.10;62.80;;;;;;5769731;24;20448;-81
2021/08/21 08:20:59;;;;;;;7.47;4.67;;;22.50;61.10;;;;;;6062244;23;20508;-81
2021/08/21 08:23:25;;;;;;;8.33;4.87;;;22.60;54.50;;;;;;6067399;23;20483;-88
2021/08/21 08:25:52;;;;;;;7.00;4.20;;;22.80;52.80;;;;;;6068881;23;20409;-88
2021/08/21 08:28:19;;;;;;;7.30;4.53;;;23.00;49.00;;;;;;6069285;23;20413;-86
2021/08/21 08:30:46;;;;;;;9.30;4.50;;;23.00;49.70;;;;;;6078383;23;20414;-87
2021/08/21 08:33:13;;;;;;;8.30;4.00;;;23.00;47.20;;;;;;6078432;23;20448;-88
2021/08/21 08:35:41;;;;;;;6.17;3.70;;;23.00;47.20;;;;;;6068736;23;20428;-87
2021/08/21 08:38:07;;;;;;;6.57;4.10;;;23.00;46.00;;;;;;6068401;23;20487;-88
2021/08/21 08:40:47;;;;;;;7.67;4.43;;;23.20;46.70;;;;;;6069648;23;20411;-84
2021/08/21 08:43:15;;;;;;;6.27;3.57;;;23.40;44.10;;;;;;6069044;23;20799;-82
2021/08/21 08:45:43;;;;;;;5.53;3.13;;;23.50;44.30;;;;;;6069063;23;20412;-78
2021/08/21 08:48:10;;;;;;;6.23;4.03;;;23.70;41.40;;;;;;6069112;23;20447;-79
2021/08/21 08:50:37;;;;;;;7.77;4.30;;;24.20;41.40;;;;;;6069076;23;20705;-78
2021/08/21 08:53:05;;;;;;;7.30;4.90;;;24.70;37.10;;;;;;6067172;23;20511;-79
2021/08/21 08:55:32;;;;;;;7.67;4.60;;;25.00;38.10;;;;;;6068941;23;20407;-77
2021/08/21 08:57:59;;;;;;;5.80;3.57;;;24.80;34.50;;;;;;6068990;23;20408;-78
2021/08/21 09:00:28;;;;;;;6.97;4.00;;;25.50;32.20;;;;;;6068947;23;20412;-79
2021/08/21 09:02:57;;;;;;;6.10;4.07;;;25.50;31.00;;;;;;6068899;23;20408;-79
2021/08/21 09:05:26;;;;;;;10.90;3.63;;;25.70;34.20;;;;;;6092628;23;20523;-82
2021/08/21 09:07:54;;;;;;;7.10;3.90;;;26.00;30.00;;;;;;6096200;23;20404;-81
2021/08/21 09:10:24;;;;;;;7.80;4.60;;;26.20;27.80;;;;;;6107333;23;20454;-81
2021/08/21 09:13:03;;;;;;;8.43;4.60;;;25.80;28.10;;;;;;6097026;23;20495;-82
2021/08/21 09:15:31;;;;;;;7.43;5.03;;;26.10;25.50;;;;;;6106664;23;20419;-84
2021/08/21 09:18:00;;;;;;;6.67;4.50;;;26.20;25.40;;;;;;6106601;23;20414;-83
2021/08/21 09:20:28;;;;;;;6.47;4.00;;;26.30;25.70;;;;;;6097252;23;20408;-82
2021/08/21 09:23:16;;;;;;;7.80;4.70;;;25.90;24.80;;;;;;6106169;23;20438;-82
2021/08/21 09:25:47;;;;;;;7.47;4.20;;;26.10;25.40;;;;;;6097235;23;20436;-84
2021/08/21 09:28:16;;;;;;;6.13;4.20;;;26.20;25.20;;;;;;6097331;23;20404;-82
2021/08/21 09:30:44;;;;;;;5.77;3.50;;;26.70;23.20;;;;;;6097196;23;20462;-82
2021/08/21 09:33:10;;;;;;;5.77;3.93;;;26.80;21.70;;;;;;6106731;23;20491;-82
2021/08/21 09:35:45;;;;;;;8.67;5.03;;;27.00;20.70;;;;;;6096928;23;20486;-84
2021/08/21 09:38:12;;;;;;;8.50;4.67;;;27.20;19.50;;;;;;6095485;23;20410;-82
2021/08/21 09:40:41;;;;;;;7.50;4.87;;;27.20;18.10;;;;;;6097423;23;20428;-82
2021/08/21 09:43:21;;;;;;;6.93;4.20;;;27.20;18.20;;;;;;6097146;23;20400;-83
2021/08/21 09:46:10;;;;;;;8.20;3.80;;;27.10;17.90;;;;;;6096865;23;20442;-83
2021/08/21 09:49:26;;;;;;;12.57;5.47;;;27.20;17.00;;;;;;6106877;23;20872;-83
2021/08/21 09:51:56;;;;;;;7.53;4.27;;;27.60;16.40;;;;;;5924562;24;20427;-83
2021/08/21 09:54:25;;;;;;;6.77;3.70;;;28.00;14.90;;;;;;6035678;23;20475;-83
2021/08/21 09:56:54;;;;;;;6.27;3.30;;;28.50;13.80;;;;;;6106731;23;20471;-82
2021/08/21 09:59:36;;;;;;;6.93;3.93;;;28.40;12.80;;;;;;6096580;23;20896;-81
2021/08/21 10:02:07;;;;;;;7.10;4.20;;;28.60;13.00;;;;;;6096089;23;21127;-83
2021/08/21 10:04:56;;;;;;;6.30;3.70;;;28.80;12.00;;;;;;6096850;23;21069;-83
2021/08/21 10:07:29;;;;;;;5.37;3.10;;;28.70;10.80;;;;;;6106826;23;20415;-83
2021/08/21 10:09:59;;;;;;;5.90;2.93;;;28.60;10.60;;;;;;6105407;23;20845;-83
2021/08/21 10:12:25;;;;;;;7.63;2.87;;;29.10;11.10;;;;;;6106785;23;20412;-84
2021/08/21 10:14:58;;;;;;;5.53;2.20;;;28.80;10.20;;;;;;6097082;23;20455;-84
2021/08/21 10:17:27;;;;;;;4.73;2.40;;;28.90;9.00;;;;;;6106417;23;20437;-84
2021/08/21 10:19:56;;;;;;;10.83;2.87;;;29.10;10.10;;;;;;6097073;23;20459;-83
2021/08/21 10:22:45;;;;;;;;;;;;;;;;;;;;;
2021/08/21 10:25:13;;;;;;;6.27;2.70;;;29.30;5.60;;;;;;6092827;23;20416;-80
2021/08/21 10:27:44;;;;;;;5.73;3.20;;;29.40;6.40;;;;;;6096983;23;20491;-81
2021/08/21 10:30:14;;;;;;;6.63;3.90;;;29.50;5.60;;;;;;6096699;23;20408;-81
2021/08/21 10:32:43;;;;;;;5.83;3.30;;;30.00;3.00;;;;;;6106741;23;20443;-79
2021/08/21 10:35:12;;;;;;;6.50;2.67;;;29.50;5.70;;;;;;6096908;23;20774;-81
2021/08/21 10:37:40;;;;;;;6.37;3.03;;;29.60;5.50;;;;;;6096625;23;20436;-81
2021/08/21 10:40:43;;;;;;;10.57;2.00;;;30.10;3.00;;;;;;6095583;23;20446;-82
2021/08/21 10:43:10;;;;;;;5.37;2.63;;;30.10;3.10;;;;;;6106424;23;20439;-81
2021/08/21 10:45:51;;;;;;;4.80;2.77;;;30.10;3.00;;;;;;6106562;23;20416;-81
2021/08/21 10:48:52;;;;;;;6.40;2.70;;;29.80;2.90;;;;;;6106772;23;20386;-82
2021/08/21 10:51:32;;;;;;;4.50;2.20;;;30.40;1.60;;;;;;6098840;23;20403;-82
2021/08/21 10:53:59;;;;;;;6.67;3.37;;;30.60;1.30;;;;;;6097297;23;20435;-81
2021/08/21 10:56:35;;;;;;;8.90;3.40;;;30.20;1.00;;;;;;6098181;23;20471;-81
2021/08/21 10:59:03;;;;;;;5.93;2.80;;;30.00;1.20;;;;;;6108382;23;20481;-81
2021/08/21 11:01:31;;;;;;;4.20;1.90;;;30.70;1.00;;;;;;6098178;23;20996;-82
2021/08/21 11:03:58;;;;;;;5.67;2.43;;;30.40;1.00;;;;;;6098533;23;20448;-81
2021/08/21 11:06:34;;;;;;;5.87;2.40;;;30.40;1.00;;;;;;6098522;23;20490;-83
2021/08/21 11:09:06;;;;;;;6.07;2.30;;;31.30;1.00;;;;;;6097453;23;20462;-85
2021/08/21 11:11:40;;;;;;;8.13;2.00;;;31.50;1.00;;;;;;6098328;23;20961;-85
2021/08/21 11:14:23;;;;;;;4.47;1.60;;;30.60;1.00;;;;;;6098609;23;20450;-85
2021/08/21 11:16:53;;;;;;;4.63;1.63;;;30.20;1.00;;;;;;6098073;23;20458;-84
2021/08/21 11:19:39;;;;;;;4.37;1.90;;;30.40;1.00;;;;;;6098706;23;20404;-85
2021/08/21 11:22:20;;;;;;;4.80;2.40;;;31.10;1.00;;;;;;6097394;23;20426;-84
2021/08/21 11:25:09;;;;;;;5.30;1.87;;;31.40;1.00;;;;;;6097044;23;20486;-84
2021/08/21 11:27:41;;;;;;;4.10;1.70;;;31.90;1.00;;;;;;6098549;23;20495;-83
2021/08/21 11:30:20;;;;;;;4.27;1.57;;;31.80;1.00;;;;;;6107928;23;20912;-85
2021/08/21 11:32:50;;;;;;;3.70;1.67;;;31.40;1.00;;;;;;6098995;23;20719;-88
2021/08/21 11:35:22;;;;;;;4.57;2.10;;;31.70;1.00;;;;;;6099064;23;20487;-91
2021/08/21 11:37:51;;;;;;;3.80;1.57;;;32.10;1.00;;;;;;6109203;23;20435;-90
2021/08/21 11:40:19;;;;;;;5.20;1.50;;;32.50;1.00;;;;;;6107910;23;20467;-86
2021/08/21 11:42:47;;;;;;;3.93;1.43;;;32.70;1.00;;;;;;6108389;23;20712;-95
2021/08/21 11:45:15;;;;;;;5.03;1.87;;;33.20;1.00;;;;;;6108092;23;20490;-87
2021/08/21 11:47:42;;;;;;;4.33;2.00;;;33.30;1.00;;;;;;6098575;23;20401;-88
2021/08/21 11:50:29;;;;;;;5.80;1.80;;;32.70;1.00;;;;;;6099352;23;20447;-86
2021/08/21 11:52:58;;;;;;;4.30;1.83;;;32.80;1.00;;;;;;6097738;23;20404;-87
2021/08/21 11:55:26;;;;;;;5.10;2.60;;;32.70;1.00;;;;;;6098461;23;20465;-90
2021/08/21 11:57:53;;;;;;;6.83;1.90;;;32.40;1.00;;;;;;6098215;23;20462;-84
2021/08/21 12:00:23;;;;;;;5.77;2.43;;;32.60;1.00;;;;;;6097734;23;20943;-86
2021/08/21 12:02:53;;;;;;;4.63;1.77;;;32.20;1.00;;;;;;6097890;23;20379;-82
2021/08/21 12:05:37;;;;;;;4.33;1.87;;;32.60;1.00;;;;;;6098052;23;20758;-82
2021/08/21 12:08:21;;;;;;;5.70;2.27;;;31.90;1.00;;;;;;6094509;23;20472;-83
2021/08/21 12:10:51;;;;;;;6.50;2.00;;;31.70;1.00;;;;;;6098157;23;20414;-84
2021/08/21 12:13:21;;;;;;;4.40;1.80;;;32.10;1.00;;;;;;6097849;23;20397;-83
2021/08/21 12:15:49;;;;;;;5.03;1.93;;;31.80;1.00;;;;;;6098014;23;20374;-85
2021/08/21 12:18:16;;;;;;;4.93;2.00;;;32.40;1.00;;;;;;6098037;23;20410;-84
2021/08/21 12:20:45;;;;;;;5.23;2.20;;;33.10;1.00;;;;;;6107475;23;20443;-85
2021/08/21 12:23:14;;;;;;;4.80;2.50;;;33.40;1.00;;;;;;6096012;23;20531;-83
2021/08/21 12:25:49;;;;;;;7.57;3.40;;;33.30;1.00;;;;;;6107608;23;20788;-83
2021/08/21 12:28:19;;;;;;;5.77;3.10;;;33.90;1.00;;;;;;6097912;23;20498;-83
2021/08/21 12:30:58;;;;;;;5.30;1.80;;;34.00;1.00;;;;;;6107472;23;20416;-83
2021/08/21 12:33:33;;;;;;;4.63;1.97;;;33.60;1.00;;;;;;6097597;23;20466;-83
2021/08/21 12:36:16;;;;;;;5.20;2.30;;;33.50;1.00;;;;;;6097532;23;20422;-83
2021/08/21 12:38:59;;;;;;;4.27;1.93;;;34.10;1.00;;;;;;6096227;23;20435;-83
2021/08/21 12:41:27;;;;;;;5.93;2.60;;;33.80;1.00;;;;;;6097453;23;20382;-82
2021/08/21 12:44:08;;;;;;;8.40;2.80;;;33.70;1.00;;;;;;6097748;23;20384;-83
2021/08/21 12:46:36;;;;;;;4.47;2.23;;;32.80;1.00;;;;;;6097642;23;20385;-83
2021/08/21 12:49:10;;;;;;;5.07;2.77;;;33.40;1.00;;;;;;6097261;23;20407;-83
2021/08/21 12:51:41;;;;;;;4.50;2.23;;;32.90;1.00;;;;;;6097279;23;20483;-83